createdAt,value
2022-07-29T00:01:50.008Z,19.41
2022-07-29T00:04:16.980Z,19.65
2022-07-29T00:06:43.812Z,19.71
2022-07-29T00:09:10.399Z,19.52
2022-07-29T00:11:37.027Z,19.52
2022-07-29T00:14:03.704Z,19.70
2022-07-29T00:16:30.422Z,19.63
2022-07-29T00:18:59.547Z,19.44
2022-07-29T00:21:28.521Z,19.28
2022-07-29T00:23:54.990Z,19.09
2022-07-29T00:26:21.458Z,19.20
2022-07-29T00:28:47.925Z,19.05
2022-07-29T00:31:14.551Z,19.02
2022-07-29T00:33:41.023Z,18.98
2022-07-29T00:36:07.559Z,18.96
2022-07-29T00:38:37.000Z,18.94
2022-07-29T00:41:03.561Z,18.99
2022-07-29T00:43:30.068Z,19.04
2022-07-29T00:45:56.605Z,19.02
2022-07-29T00:48:23.086Z,19.00
2022-07-29T00:50:50.637Z,19.10
2022-07-29T00:53:17.286Z,18.83
2022-07-29T00:55:43.901Z,18.82
2022-07-29T00:58:13.202Z,18.73
2022-07-29T01:00:41.752Z,18.85
2022-07-29T01:03:08.935Z,18.84
2022-07-29T01:05:49.632Z,18.65
2022-07-29T01:08:18.338Z,18.86
2022-07-29T01:10:45.173Z,18.75
2022-07-29T01:13:11.969Z,18.95
2022-07-29T01:15:49.233Z,18.59
2022-07-29T01:18:22.177Z,18.96
2022-07-29T01:21:16.881Z,18.64
2022-07-29T01:24:10.718Z,18.53
2022-07-29T01:26:49.162Z,18.44
2022-07-29T01:29:19.038Z,18.65
2022-07-29T01:31:58.967Z,18.40
2022-07-29T01:34:33.605Z,18.60
2022-07-29T01:37:16.817Z,18.59
2022-07-29T01:39:44.620Z,18.69
2022-07-29T01:42:14.172Z,18.37
2022-07-29T01:44:51.676Z,18.46
2022-07-29T01:47:32.233Z,18.52
2022-07-29T01:49:59.631Z,18.59
2022-07-29T01:52:43.298Z,18.48
2022-07-29T01:55:14.588Z,18.37
2022-07-29T01:57:44.255Z,18.44
2022-07-29T02:00:11.837Z,18.27
2022-07-29T02:02:40.608Z,18.13
2022-07-29T02:05:09.356Z,18.04
2022-07-29T02:07:37.431Z,18.02
2022-07-29T02:10:05.098Z,18.08
2022-07-29T02:12:32.541Z,18.18
2022-07-29T02:15:01.099Z,18.12
2022-07-29T02:17:32.013Z,17.98
2022-07-29T02:20:01.042Z,18.11
2022-07-29T02:22:29.799Z,17.96
2022-07-29T02:24:56.939Z,18.09
2022-07-29T02:27:24.843Z,18.12
2022-07-29T02:29:52.329Z,18.02
2022-07-29T02:32:19.100Z,17.82
2022-07-29T02:34:45.836Z,17.85
2022-07-29T02:37:13.040Z,17.83
2022-07-29T02:39:42.183Z,17.88
2022-07-29T02:42:12.733Z,17.85
2022-07-29T02:44:39.261Z,17.87
2022-07-29T02:47:18.669Z,17.67
2022-07-29T02:49:53.441Z,17.63
2022-07-29T02:52:24.285Z,17.61
2022-07-29T02:54:59.691Z,17.53
2022-07-29T02:57:54.733Z,17.65
2022-07-29T03:00:23.475Z,17.39
2022-07-29T03:02:52.520Z,17.53
2022-07-29T03:05:20.978Z,17.55
2022-07-29T03:08:01.487Z,17.45
2022-07-29T03:10:28.361Z,17.46
2022-07-29T03:12:56.597Z,17.37
2022-07-29T03:15:23.224Z,17.14
2022-07-29T03:17:52.703Z,17.41
2022-07-29T03:20:19.631Z,17.47
2022-07-29T03:22:48.003Z,17.49
2022-07-29T03:25:19.063Z,17.61
2022-07-29T03:27:45.876Z,17.36
2022-07-29T03:30:18.314Z,17.34
2022-07-29T03:32:48.565Z,16.98
2022-07-29T03:35:17.432Z,16.82
2022-07-29T03:37:44.834Z,16.78
2022-07-29T03:40:13.696Z,16.88
2022-07-29T03:42:41.561Z,16.97
2022-07-29T03:45:11.042Z,17.00
2022-07-29T03:47:49.612Z,16.92
2022-07-29T03:50:18.068Z,16.96
2022-07-29T03:52:45.416Z,16.83
2022-07-29T03:55:12.151Z,16.77
2022-07-29T03:57:39.295Z,16.71
2022-07-29T04:00:06.816Z,16.44
2022-07-29T04:02:33.562Z,16.20
2022-07-29T04:05:00.846Z,16.33
2022-07-29T04:07:27.438Z,16.44
2022-07-29T04:09:53.966Z,16.51
2022-07-29T04:12:22.150Z,16.66
2022-07-29T04:14:49.629Z,16.89
2022-07-29T04:17:16.082Z,16.91
2022-07-29T04:19:42.560Z,16.85
2022-07-29T04:22:09.005Z,16.83
2022-07-29T04:24:35.605Z,16.92
2022-07-29T04:27:02.070Z,16.57
2022-07-29T04:29:28.568Z,16.18
2022-07-29T04:31:55.061Z,16.28
2022-07-29T04:34:21.525Z,16.23
2022-07-29T04:36:47.948Z,16.19
2022-07-29T04:39:18.082Z,16.37
2022-07-29T04:41:48.154Z,16.46
2022-07-29T04:44:14.841Z,16.49
2022-07-29T04:46:41.461Z,16.46
2022-07-29T04:49:08.193Z,16.46
2022-07-29T04:51:35.345Z,16.43
2022-07-29T04:54:01.988Z,16.49
2022-07-29T04:56:28.626Z,16.38
2022-07-29T04:58:55.145Z,16.61
2022-07-29T05:01:21.680Z,16.49
2022-07-29T05:03:48.256Z,16.78
2022-07-29T05:06:14.725Z,16.61
2022-07-29T05:08:42.042Z,16.76
2022-07-29T05:11:12.443Z,16.79
2022-07-29T05:13:45.898Z,17.07
2022-07-29T05:16:14.207Z,17.08
2022-07-29T05:18:40.876Z,17.32
2022-07-29T05:21:07.322Z,17.48
2022-07-29T05:23:33.841Z,17.61
2022-07-29T05:26:00.378Z,18.15
2022-07-29T05:28:26.832Z,18.12
2022-07-29T05:30:53.376Z,18.72
2022-07-29T05:33:35.176Z,18.97
2022-07-29T05:36:08.185Z,18.99
2022-07-29T05:38:38.255Z,19.41
2022-07-29T05:41:06.047Z,19.19
2022-07-29T05:43:32.976Z,19.46
2022-07-29T05:45:59.607Z,19.95
2022-07-29T05:48:26.318Z,20.21
2022-07-29T05:50:52.813Z,20.00
2022-07-29T05:53:20.855Z,20.27
2022-07-29T05:55:48.580Z,19.92
2022-07-29T05:58:15.137Z,20.38
2022-07-29T06:00:43.000Z,20.23
2022-07-29T06:03:09.456Z,20.05
2022-07-29T06:05:36.016Z,20.71
2022-07-29T06:08:02.652Z,21.27
2022-07-29T06:10:29.172Z,22.40
2022-07-29T06:12:55.983Z,22.50
2022-07-29T06:15:22.515Z,23.16
2022-07-29T06:18:00.354Z,23.58
2022-07-29T06:20:30.756Z,23.82
2022-07-29T06:22:57.667Z,23.89
2022-07-29T06:25:24.436Z,24.13
2022-07-29T06:27:50.966Z,23.73
2022-07-29T06:30:17.537Z,23.51
2022-07-29T06:32:43.980Z,23.30
2022-07-29T06:35:37.726Z,23.54
2022-07-29T06:37:59.592Z,24.02
2022-07-29T06:40:45.576Z,24.65
2022-07-29T06:43:12.238Z,24.93
2022-07-29T06:45:42.189Z,24.61
2022-07-29T06:48:09.220Z,25.21
2022-07-29T06:50:35.685Z,25.41
2022-07-29T06:53:02.163Z,25.02
2022-07-29T06:55:28.749Z,25.01
2022-07-29T06:57:55.198Z,25.75
2022-07-29T07:00:21.795Z,26.00
2022-07-29T07:02:48.875Z,25.97
2022-07-29T07:05:15.433Z,25.73
2022-07-29T07:07:41.902Z,26.04
2022-07-29T07:10:08.744Z,26.42
2022-07-29T07:12:35.168Z,26.60
2022-07-29T07:15:01.782Z,26.39
2022-07-29T07:17:28.273Z,25.99
2022-07-29T07:19:54.687Z,25.91
2022-07-29T07:22:21.220Z,25.87
2022-07-29T07:24:47.721Z,26.05
2022-07-29T07:27:14.251Z,25.66
2022-07-29T07:29:42.102Z,25.49
2022-07-29T07:32:11.033Z,25.27
2022-07-29T07:34:38.886Z,25.16
2022-07-29T07:37:06.182Z,25.65
2022-07-29T07:39:32.771Z,25.71
2022-07-29T07:41:59.367Z,25.67
2022-07-29T07:44:25.822Z,25.51
2022-07-29T07:46:52.397Z,25.00
2022-07-29T07:49:19.731Z,25.01
2022-07-29T07:51:50.697Z,25.60
2022-07-29T07:54:18.143Z,25.82
2022-07-29T07:56:45.185Z,26.00
2022-07-29T07:59:11.637Z,26.17
2022-07-29T08:01:48.422Z,26.64
2022-07-29T08:04:27.477Z,27.14
2022-07-29T08:06:57.765Z,26.95
2022-07-29T08:09:30.386Z,26.63
2022-07-29T08:11:58.586Z,26.71
2022-07-29T08:14:25.133Z,26.45
2022-07-29T08:16:52.324Z,26.29
2022-07-29T08:19:19.106Z,26.23
2022-07-29T08:21:45.549Z,26.20
2022-07-29T08:24:30.603Z,26.58
2022-07-29T08:26:57.105Z,27.06
2022-07-29T08:29:23.645Z,27.19
2022-07-29T08:31:50.367Z,27.39
2022-07-29T08:34:17.112Z,27.20
2022-07-29T08:36:43.559Z,26.70
2022-07-29T08:39:10.213Z,26.70
2022-07-29T08:41:36.670Z,27.23
2022-07-29T08:44:03.281Z,26.61
2022-07-29T08:46:29.768Z,26.96
2022-07-29T08:48:56.480Z,26.24
2022-07-29T08:51:23.325Z,26.92
2022-07-29T08:53:51.027Z,26.98
2022-07-29T08:56:19.094Z,26.98
2022-07-29T08:58:52.033Z,26.87
2022-07-29T09:01:36.511Z,26.77
2022-07-29T09:04:10.653Z,26.91
2022-07-29T09:06:39.475Z,26.95
2022-07-29T09:09:06.346Z,27.02
2022-07-29T09:11:33.499Z,27.00
2022-07-29T09:14:00.346Z,26.83
2022-07-29T09:16:50.971Z,27.25
2022-07-29T09:19:26.402Z,27.39
2022-07-29T09:21:59.370Z,27.63
2022-07-29T09:24:40.501Z,28.04
2022-07-29T09:27:19.940Z,27.87
2022-07-29T09:29:46.584Z,27.73
2022-07-29T09:32:13.348Z,28.18
2022-07-29T09:34:39.819Z,28.18
2022-07-29T09:37:06.435Z,27.94
2022-07-29T09:39:49.205Z,27.79
2022-07-29T09:42:29.294Z,28.08
2022-07-29T09:44:55.768Z,28.42
2022-07-29T09:47:26.854Z,28.25
2022-07-29T09:49:59.138Z,28.07
2022-07-29T09:52:30.675Z,28.23
2022-07-29T09:55:07.449Z,28.33
2022-07-29T09:57:33.911Z,28.75
2022-07-29T10:00:03.899Z,29.08
2022-07-29T10:02:34.499Z,29.23
2022-07-29T10:05:03.051Z,29.02
2022-07-29T10:07:53.312Z,28.87
2022-07-29T10:10:28.866Z,29.29
2022-07-29T10:12:56.179Z,29.14
2022-07-29T10:15:24.751Z,28.52
2022-07-29T10:17:52.359Z,28.97
2022-07-29T10:20:19.582Z,29.41
2022-07-29T10:22:53.520Z,28.99
2022-07-29T10:25:21.463Z,29.63
2022-07-29T10:27:48.773Z,29.58
2022-07-29T10:30:16.437Z,28.81
2022-07-29T10:33:04.495Z,29.49
2022-07-29T10:35:45.021Z,29.86
2022-07-29T10:38:45.793Z,29.91
2022-07-29T10:41:55.415Z,29.51
2022-07-29T10:44:24.557Z,29.29
2022-07-29T10:46:52.251Z,29.50
2022-07-29T10:49:20.200Z,29.70
2022-07-29T10:52:03.644Z,30.12
2022-07-29T10:54:48.435Z,30.18
2022-07-29T10:57:53.284Z,30.19
2022-07-29T11:00:12.654Z,29.33
2022-07-29T11:02:45.343Z,30.29
2022-07-29T11:05:13.610Z,30.30
2022-07-29T11:08:02.338Z,30.32
2022-07-29T11:10:31.308Z,30.05
2022-07-29T11:12:59.103Z,29.69
2022-07-29T11:15:25.654Z,28.89
2022-07-29T11:17:55.187Z,29.27
2022-07-29T11:20:38.719Z,29.47
2022-07-29T11:23:36.486Z,29.93
2022-07-29T11:26:28.377Z,30.05
2022-07-29T11:29:04.617Z,30.42
2022-07-29T11:31:44.322Z,30.86
2022-07-29T11:34:22.586Z,31.05
2022-07-29T11:37:07.594Z,30.99
2022-07-29T11:39:36.803Z,30.72
2022-07-29T11:42:32.459Z,30.61
2022-07-29T11:45:41.751Z,30.02
2022-07-29T11:48:03.669Z,30.29
2022-07-29T11:50:45.738Z,30.32
2022-07-29T11:53:15.115Z,30.11
2022-07-29T11:55:51.018Z,29.89
2022-07-29T12:01:14.981Z,29.22
2022-07-29T12:03:43.632Z,29.59
2022-07-29T12:06:14.904Z,29.86
2022-07-29T12:08:46.013Z,30.17
2022-07-29T12:11:22.503Z,30.08
2022-07-29T12:13:51.488Z,30.18
2022-07-29T12:16:26.134Z,29.86
2022-07-29T12:19:02.097Z,29.85
2022-07-29T12:21:30.207Z,29.35
2022-07-29T12:24:03.348Z,29.77
2022-07-29T12:26:34.132Z,29.97
2022-07-29T12:29:03.381Z,29.70
2022-07-29T12:31:42.202Z,29.76
2022-07-29T12:34:16.410Z,29.90
2022-07-29T12:36:43.803Z,29.63
2022-07-29T12:39:11.542Z,29.88
2022-07-29T12:41:38.469Z,30.17
2022-07-29T12:44:07.982Z,30.16
2022-07-29T12:46:34.610Z,30.45
2022-07-29T12:49:01.240Z,30.36
2022-07-29T12:51:34.672Z,30.37
2022-07-29T12:54:11.691Z,30.05
2022-07-29T12:56:43.693Z,30.49
2022-07-29T12:59:14.521Z,30.76
2022-07-29T13:01:41.137Z,30.94
2022-07-29T13:04:07.714Z,30.82
2022-07-29T13:06:49.674Z,30.03
2022-07-29T13:09:20.110Z,30.10
2022-07-29T13:11:51.028Z,29.95
2022-07-29T13:14:38.571Z,30.44
2022-07-29T13:17:13.426Z,30.36
2022-07-29T13:19:54.244Z,30.39
2022-07-29T13:22:36.644Z,30.43
2022-07-29T13:25:03.874Z,30.80
2022-07-29T13:27:33.480Z,30.58
2022-07-29T13:30:01.746Z,30.61
2022-07-29T13:32:30.418Z,30.70
2022-07-29T13:34:58.564Z,31.22
2022-07-29T13:37:25.711Z,31.38
2022-07-29T13:39:58.064Z,31.22
2022-07-29T13:42:27.742Z,30.74
2022-07-29T13:44:56.462Z,31.08
2022-07-29T13:47:35.072Z,30.44
2022-07-29T13:50:02.331Z,30.80
2022-07-29T13:52:29.280Z,30.64
2022-07-29T13:55:00.582Z,30.77
2022-07-29T13:57:40.664Z,31.09
2022-07-29T14:00:13.955Z,30.85
2022-07-29T14:02:43.734Z,31.10
2022-07-29T14:05:11.116Z,31.27
2022-07-29T14:07:39.859Z,30.39
2022-07-29T14:10:07.242Z,30.01
2022-07-29T14:12:33.918Z,30.30
2022-07-29T14:15:00.418Z,30.82
2022-07-29T14:17:27.131Z,30.74
2022-07-29T14:19:58.257Z,31.19
2022-07-29T14:22:26.960Z,31.23
2022-07-29T14:24:55.489Z,31.45
2022-07-29T14:27:37.685Z,31.59
2022-07-29T14:30:08.167Z,31.74
2022-07-29T14:32:34.693Z,31.67
2022-07-29T14:35:01.181Z,31.73
2022-07-29T14:37:27.790Z,31.22
2022-07-29T14:40:06.532Z,31.12
2022-07-29T14:42:33.137Z,31.57
2022-07-29T14:44:59.730Z,31.78
2022-07-29T14:47:30.784Z,31.82
2022-07-29T14:49:57.364Z,30.79
2022-07-29T14:52:23.885Z,30.55
2022-07-29T14:54:50.441Z,30.58
2022-07-29T14:57:17.411Z,30.11
2022-07-29T14:59:43.933Z,30.02
2022-07-29T15:02:10.934Z,30.22
2022-07-29T15:04:55.893Z,30.27
2022-07-29T15:07:48.206Z,30.47
2022-07-29T15:10:15.681Z,30.75
2022-07-29T15:12:42.276Z,30.52
2022-07-29T15:15:09.832Z,30.35
2022-07-29T15:17:36.560Z,30.49
2022-07-29T15:20:04.034Z,30.45
2022-07-29T15:22:30.567Z,30.89
2022-07-29T15:24:57.293Z,30.55
2022-07-29T15:27:23.861Z,30.37
2022-07-29T15:29:50.496Z,30.64
2022-07-29T15:32:19.838Z,30.81
2022-07-29T15:34:46.541Z,30.91
2022-07-29T15:37:13.071Z,30.55
2022-07-29T15:39:39.872Z,30.42
2022-07-29T15:42:06.674Z,30.22
2022-07-29T15:44:33.348Z,30.07
2022-07-29T15:47:08.412Z,29.86
2022-07-29T15:49:47.402Z,29.86
2022-07-29T15:52:26.876Z,30.19
2022-07-29T15:54:59.055Z,30.11
2022-07-29T15:57:26.049Z,30.38
2022-07-29T15:59:53.005Z,30.33
2022-07-29T16:02:19.866Z,30.51
2022-07-29T16:04:47.227Z,30.65
2022-07-29T16:07:14.310Z,30.65
2022-07-29T16:09:41.263Z,30.83
2022-07-29T16:12:14.736Z,30.78
2022-07-29T16:14:43.355Z,30.63
2022-07-29T16:17:14.249Z,30.69
2022-07-29T16:19:41.934Z,30.36
2022-07-29T16:22:08.440Z,30.26
2022-07-29T16:24:34.970Z,30.10
2022-07-29T16:27:02.067Z,29.88
2022-07-29T16:29:29.083Z,29.80
2022-07-29T16:31:55.660Z,29.51
2022-07-29T16:34:22.256Z,29.48
2022-07-29T16:36:48.752Z,29.18
2022-07-29T16:39:15.530Z,29.13
2022-07-29T16:41:42.293Z,29.12
2022-07-29T16:44:08.756Z,28.93
2022-07-29T16:46:37.410Z,28.93
2022-07-29T16:49:05.661Z,28.81
2022-07-29T16:51:32.675Z,28.92
2022-07-29T16:53:59.214Z,29.05
2022-07-29T16:56:25.742Z,29.15
2022-07-29T16:58:52.206Z,29.10
2022-07-29T17:01:18.859Z,29.00
2022-07-29T17:04:03.866Z,29.04
2022-07-29T17:06:30.451Z,28.95
2022-07-29T17:08:57.124Z,28.94
2022-07-29T17:11:53.270Z,28.88
2022-07-29T17:14:10.646Z,28.76
2022-07-29T17:16:37.199Z,28.63
2022-07-29T17:19:03.732Z,28.64
2022-07-29T17:21:30.268Z,28.49
2022-07-29T17:23:58.713Z,28.44
2022-07-29T17:26:26.830Z,28.59
2022-07-29T17:28:55.067Z,28.37
2022-07-29T17:31:21.849Z,28.58
2022-07-29T17:33:48.548Z,28.43
2022-07-29T17:36:24.007Z,28.38
2022-07-29T17:38:51.617Z,28.43
2022-07-29T17:41:18.381Z,28.41
2022-07-29T17:43:44.980Z,28.41
2022-07-29T17:46:11.551Z,28.36
2022-07-29T17:48:38.211Z,28.32
2022-07-29T17:51:04.804Z,28.42
2022-07-29T17:53:31.402Z,28.28
2022-07-29T17:55:58.685Z,28.35
2022-07-29T17:58:27.768Z,28.29
2022-07-29T18:00:54.288Z,28.48
2022-07-29T18:03:21.259Z,28.42
2022-07-29T18:05:51.516Z,28.42
2022-07-29T18:08:18.321Z,28.31
2022-07-29T18:10:45.981Z,28.16
2022-07-29T18:13:12.948Z,28.18
2022-07-29T18:15:40.624Z,28.04
2022-07-29T18:18:07.637Z,27.92
2022-07-29T18:20:34.511Z,27.90
2022-07-29T18:23:01.348Z,27.83
2022-07-29T18:25:28.927Z,27.76
2022-07-29T18:27:59.992Z,27.72
2022-07-29T18:30:27.390Z,27.28
2022-07-29T18:33:19.144Z,27.21
2022-07-29T18:35:40.820Z,26.95
2022-07-29T18:38:07.341Z,26.89
2022-07-29T18:40:34.015Z,26.82
2022-07-29T18:43:00.585Z,26.87
2022-07-29T18:45:28.572Z,26.76
2022-07-29T18:47:56.351Z,26.78
2022-07-29T18:50:28.944Z,26.59
2022-07-29T18:52:58.692Z,26.57
2022-07-29T18:55:26.011Z,26.31
2022-07-29T18:57:57.465Z,26.53
2022-07-29T19:00:25.519Z,26.26
2022-07-29T19:02:53.094Z,26.25
2022-07-29T19:05:21.268Z,26.35
2022-07-29T19:07:48.468Z,26.27
2022-07-29T19:10:16.037Z,26.06
2022-07-29T19:12:45.622Z,26.10
2022-07-29T19:15:20.310Z,25.72
2022-07-29T19:17:49.009Z,25.71
2022-07-29T19:20:18.483Z,25.60
2022-07-29T19:22:49.253Z,25.65
2022-07-29T19:25:19.558Z,25.43
2022-07-29T19:27:51.282Z,25.60
2022-07-29T19:30:18.890Z,25.56
2022-07-29T19:32:48.746Z,25.42
2022-07-29T19:35:25.446Z,25.55
2022-07-29T19:37:59.015Z,25.38
2022-07-29T19:40:26.616Z,25.35
2022-07-29T19:42:54.302Z,25.40
2022-07-29T19:45:25.994Z,25.31
2022-07-29T19:47:57.718Z,25.32
2022-07-29T19:50:27.649Z,25.26
2022-07-29T19:52:56.346Z,25.28
2022-07-29T19:55:23.605Z,25.30
2022-07-29T19:57:51.070Z,25.12
2022-07-29T20:00:20.301Z,25.00
2022-07-29T20:02:48.303Z,25.08
2022-07-29T20:05:17.841Z,25.12
2022-07-29T20:07:44.613Z,25.08
2022-07-29T20:10:11.379Z,24.93
2022-07-29T20:12:38.856Z,24.86
2022-07-29T20:15:10.637Z,24.73
2022-07-29T20:17:45.691Z,24.58
2022-07-29T20:20:15.661Z,24.63
2022-07-29T20:22:42.991Z,24.62
2022-07-29T20:25:13.521Z,24.53
2022-07-29T20:27:40.653Z,24.59
2022-07-29T20:30:08.335Z,24.29
2022-07-29T20:32:35.639Z,24.27
2022-07-29T20:35:02.347Z,24.05
2022-07-29T20:37:29.148Z,23.79
2022-07-29T20:39:55.880Z,23.70
2022-07-29T20:42:22.593Z,23.70
2022-07-29T20:44:54.044Z,23.73
2022-07-29T20:47:22.453Z,23.57
2022-07-29T20:49:49.132Z,23.45
2022-07-29T20:52:16.551Z,23.44
2022-07-29T20:54:43.294Z,23.28
2022-07-29T20:57:09.792Z,23.31
2022-07-29T20:59:36.376Z,23.01
2022-07-29T21:02:03.357Z,22.90
2022-07-29T21:04:30.753Z,22.84
2022-07-29T21:06:59.389Z,22.89
2022-07-29T21:09:26.208Z,22.80
2022-07-29T21:11:52.756Z,22.68
2022-07-29T21:14:42.397Z,22.76
2022-07-29T21:17:09.005Z,22.69
2022-07-29T21:19:35.558Z,22.73
2022-07-29T21:22:02.211Z,22.45
2022-07-29T21:24:28.827Z,22.34
2022-07-29T21:27:20.579Z,22.41
2022-07-29T21:29:47.557Z,22.26
2022-07-29T21:32:29.459Z,22.21
2022-07-29T21:34:57.374Z,22.14
2022-07-29T21:37:23.988Z,21.95
2022-07-29T21:39:50.554Z,21.83
2022-07-29T21:42:19.051Z,21.81
2022-07-29T21:44:45.711Z,21.66
2022-07-29T21:47:12.253Z,21.63
2022-07-29T21:49:39.213Z,21.81
2022-07-29T21:52:06.325Z,21.75
2022-07-29T21:54:34.616Z,21.82
2022-07-29T21:57:01.267Z,21.75
2022-07-29T21:59:27.986Z,21.60
2022-07-29T22:01:54.917Z,21.27
2022-07-29T22:04:24.793Z,21.12
2022-07-29T22:06:51.580Z,21.00
2022-07-29T22:09:18.336Z,20.98
2022-07-29T22:11:45.131Z,20.90
2022-07-29T22:14:15.132Z,21.28
2022-07-29T22:16:41.875Z,21.09
2022-07-29T22:19:08.655Z,20.92
2022-07-29T22:21:35.393Z,20.89
2022-07-29T22:24:02.140Z,20.73
2022-07-29T22:26:28.828Z,20.88
2022-07-29T22:28:55.508Z,20.79
2022-07-29T22:31:22.222Z,20.39
2022-07-29T22:33:54.068Z,20.38
2022-07-29T22:36:20.739Z,20.28
2022-07-29T22:38:51.754Z,20.31
2022-07-29T22:41:18.716Z,20.48
2022-07-29T22:43:47.573Z,20.73
2022-07-29T22:46:14.357Z,20.29
2022-07-29T22:48:41.109Z,20.36
2022-07-29T22:51:07.919Z,20.16
2022-07-29T22:53:36.289Z,20.15
2022-07-29T22:56:05.893Z,20.34
2022-07-29T22:58:32.742Z,19.92
2022-07-29T23:01:02.483Z,19.97
2022-07-29T23:03:29.280Z,19.84
2022-07-29T23:05:56.209Z,19.99
2022-07-29T23:08:22.818Z,20.07
2022-07-29T23:10:49.659Z,19.74
2022-07-29T23:13:16.397Z,19.72
2022-07-29T23:15:43.094Z,19.89
2022-07-29T23:18:09.812Z,19.56
2022-07-29T23:20:36.931Z,19.62
2022-07-29T23:23:03.652Z,19.80
2022-07-29T23:25:30.294Z,19.56
2022-07-29T23:28:00.179Z,19.42
2022-07-29T23:30:27.276Z,19.50
2022-07-29T23:32:55.083Z,19.30
2022-07-29T23:35:21.980Z,19.39
2022-07-29T23:37:48.650Z,19.20
2022-07-29T23:40:15.415Z,19.07
2022-07-29T23:42:42.713Z,19.10
2022-07-29T23:45:10.516Z,19.32
2022-07-29T23:47:37.087Z,19.09
2022-07-29T23:50:04.994Z,19.15
2022-07-29T23:52:31.487Z,18.87
2022-07-29T23:55:36.907Z,18.76
2022-07-29T23:57:44.492Z,19.10
